sensor_id;sensor_type;location;lat;lon;timestamp;P1;durP1;ratioP1;P2;durP2;ratioP2
67602;SDS011;54417;47.454;18.918;2023-11-22T00:00:43;21.15;;;12.80;;
67602;SDS011;54417;47.454;18.918;2023-11-22T00:05:53;21.73;;;12.88;;
67602;SDS011;54417;47.454;18.918;2023-11-22T00:11:01;21.35;;;12.77;;
67602;SDS011;54417;47.454;18.918;2023-11-22T00:16:12;18.10;;;10.88;;
67602;SDS011;54417;47.454;18.918;2023-11-22T00:21:17;16.25;;;9.95;;
67602;SDS011;54417;47.454;18.918;2023-11-22T00:26:22;18.02;;;9.27;;
67602;SDS011;54417;47.454;18.918;2023-11-22T00:31:36;14.27;;;8.65;;
67602;SDS011;54417;47.454;18.918;2023-11-22T00:36:47;26.10;;;13.75;;
67602;SDS011;54417;47.454;18.918;2023-11-22T00:41:58;16.63;;;9.23;;
67602;SDS011;54417;47.454;18.918;2023-11-22T00:47:06;14.07;;;8.50;;
67602;SDS011;54417;47.454;18.918;2023-11-22T00:52:17;15.18;;;8.07;;
67602;SDS011;54417;47.454;18.918;2023-11-22T00:57:21;13.63;;;8.88;;
67602;SDS011;54417;47.454;18.918;2023-11-22T01:02:30;14.82;;;9.57;;
67602;SDS011;54417;47.454;18.918;2023-11-22T01:07:35;20.00;;;11.35;;
67602;SDS011;54417;47.454;18.918;2023-11-22T01:12:39;18.30;;;10.60;;
67602;SDS011;54417;47.454;18.918;2023-11-22T01:17:48;16.88;;;10.35;;
67602;SDS011;54417;47.454;18.918;2023-11-22T01:22:59;18.25;;;10.70;;
67602;SDS011;54417;47.454;18.918;2023-11-22T01:28:07;20.50;;;12.18;;
67602;SDS011;54417;47.454;18.918;2023-11-22T01:33:18;20.15;;;12.60;;
67602;SDS011;54417;47.454;18.918;2023-11-22T01:38:29;19.48;;;11.40;;
67602;SDS011;54417;47.454;18.918;2023-11-22T01:43:37;20.58;;;13.68;;
67602;SDS011;54417;47.454;18.918;2023-11-22T01:48:47;21.20;;;12.32;;
67602;SDS011;54417;47.454;18.918;2023-11-22T01:53:57;19.83;;;13.30;;
67602;SDS011;54417;47.454;18.918;2023-11-22T01:59:07;26.88;;;14.25;;
67602;SDS011;54417;47.454;18.918;2023-11-22T02:04:11;26.00;;;13.88;;
67602;SDS011;54417;47.454;18.918;2023-11-22T02:09:22;22.65;;;13.88;;
67602;SDS011;54417;47.454;18.918;2023-11-22T02:14:32;22.73;;;14.47;;
67602;SDS011;54417;47.454;18.918;2023-11-22T02:19:42;16.67;;;11.88;;
67602;SDS011;54417;47.454;18.918;2023-11-22T02:24:49;18.75;;;11.93;;
67602;SDS011;54417;47.454;18.918;2023-11-22T02:29:57;20.00;;;12.30;;
67602;SDS011;54417;47.454;18.918;2023-11-22T02:35:06;17.15;;;12.70;;
67602;SDS011;54417;47.454;18.918;2023-11-22T02:40:18;17.85;;;12.10;;
67602;SDS011;54417;47.454;18.918;2023-11-22T02:50:36;14.52;;;10.35;;
67602;SDS011;54417;47.454;18.918;2023-11-22T02:55:48;19.63;;;11.93;;
67602;SDS011;54417;47.454;18.918;2023-11-22T03:00:56;20.88;;;12.80;;
67602;SDS011;54417;47.454;18.918;2023-11-22T03:06:05;18.92;;;12.50;;
67602;SDS011;54417;47.454;18.918;2023-11-22T03:11:15;23.65;;;13.80;;
67602;SDS011;54417;47.454;18.918;2023-11-22T03:16:27;22.95;;;14.32;;
67602;SDS011;54417;47.454;18.918;2023-11-22T03:21:37;19.55;;;13.10;;
67602;SDS011;54417;47.454;18.918;2023-11-22T03:26:48;23.15;;;13.48;;
67602;SDS011;54417;47.454;18.918;2023-11-22T03:31:57;20.85;;;12.82;;
67602;SDS011;54417;47.454;18.918;2023-11-22T03:37:05;22.83;;;14.07;;
67602;SDS011;54417;47.454;18.918;2023-11-22T03:42:11;22.55;;;13.32;;
67602;SDS011;54417;47.454;18.918;2023-11-22T03:47:20;21.38;;;13.55;;
67602;SDS011;54417;47.454;18.918;2023-11-22T03:52:29;20.20;;;12.88;;
67602;SDS011;54417;47.454;18.918;2023-11-22T03:57:39;21.30;;;13.45;;
67602;SDS011;54417;47.454;18.918;2023-11-22T04:02:48;20.80;;;14.13;;
67602;SDS011;54417;47.454;18.918;2023-11-22T04:07:57;22.42;;;13.27;;
67602;SDS011;54417;47.454;18.918;2023-11-22T04:13:07;18.58;;;13.32;;
67602;SDS011;54417;47.454;18.918;2023-11-22T04:18:11;25.10;;;14.25;;
67602;SDS011;54417;47.454;18.918;2023-11-22T04:23:15;18.77;;;13.05;;
67602;SDS011;54417;47.454;18.918;2023-11-22T04:28:26;17.38;;;12.38;;
67602;SDS011;54417;47.454;18.918;2023-11-22T04:33:31;19.55;;;12.93;;
67602;SDS011;54417;47.454;18.918;2023-11-22T04:38:40;19.73;;;13.02;;
67602;SDS011;54417;47.454;18.918;2023-11-22T04:43:50;15.45;;;11.48;;
67602;SDS011;54417;47.454;18.918;2023-11-22T04:48:59;18.75;;;11.35;;
67602;SDS011;54417;47.454;18.918;2023-11-22T04:54:08;16.48;;;10.68;;
67602;SDS011;54417;47.454;18.918;2023-11-22T04:59:18;17.75;;;10.20;;
67602;SDS011;54417;47.454;18.918;2023-11-22T05:04:27;20.83;;;11.77;;
67602;SDS011;54417;47.454;18.918;2023-11-22T05:09:36;15.40;;;10.93;;
67602;SDS011;54417;47.454;18.918;2023-11-22T05:14:46;18.15;;;10.65;;
67602;SDS011;54417;47.454;18.918;2023-11-22T05:19:55;13.65;;;10.15;;
67602;SDS011;54417;47.454;18.918;2023-11-22T05:24:59;16.48;;;10.73;;
67602;SDS011;54417;47.454;18.918;2023-11-22T05:30:10;17.20;;;10.70;;
67602;SDS011;54417;47.454;18.918;2023-11-22T05:35:19;18.17;;;12.05;;
67602;SDS011;54417;47.454;18.918;2023-11-22T05:40:28;20.42;;;12.60;;
67602;SDS011;54417;47.454;18.918;2023-11-22T05:45:38;19.85;;;12.45;;
67602;SDS011;54417;47.454;18.918;2023-11-22T05:50:47;18.52;;;11.70;;
67602;SDS011;54417;47.454;18.918;2023-11-22T05:55:56;21.65;;;11.75;;
67602;SDS011;54417;47.454;18.918;2023-11-22T06:01:03;13.98;;;9.50;;
67602;SDS011;54417;47.454;18.918;2023-11-22T06:06:12;14.43;;;9.85;;
67602;SDS011;54417;47.454;18.918;2023-11-22T06:11:21;17.63;;;10.20;;
67602;SDS011;54417;47.454;18.918;2023-11-22T06:16:31;17.17;;;10.10;;
67602;SDS011;54417;47.454;18.918;2023-11-22T06:21:40;16.98;;;10.32;;
67602;SDS011;54417;47.454;18.918;2023-11-22T06:26:48;17.20;;;10.98;;
67602;SDS011;54417;47.454;18.918;2023-11-22T06:31:59;19.45;;;11.80;;
67602;SDS011;54417;47.454;18.918;2023-11-22T06:37:08;17.95;;;11.48;;
67602;SDS011;54417;47.454;18.918;2023-11-22T06:42:16;21.88;;;12.02;;
67602;SDS011;54417;47.454;18.918;2023-11-22T06:47:27;16.40;;;8.85;;
67602;SDS011;54417;47.454;18.918;2023-11-22T06:52:37;17.95;;;10.35;;
67602;SDS011;54417;47.454;18.918;2023-11-22T06:57:41;14.85;;;9.60;;
67602;SDS011;54417;47.454;18.918;2023-11-22T07:02:51;20.85;;;10.88;;
67602;SDS011;54417;47.454;18.918;2023-11-22T07:08:00;17.58;;;11.98;;
67602;SDS011;54417;47.454;18.918;2023-11-22T07:13:09;21.92;;;12.50;;
67602;SDS011;54417;47.454;18.918;2023-11-22T07:18:19;24.33;;;12.80;;
67602;SDS011;54417;47.454;18.918;2023-11-22T07:23:31;17.77;;;11.65;;
67602;SDS011;54417;47.454;18.918;2023-11-22T07:28:35;14.18;;;9.02;;
67602;SDS011;54417;47.454;18.918;2023-11-22T07:33:47;12.85;;;8.60;;
67602;SDS011;54417;47.454;18.918;2023-11-22T07:38:57;13.00;;;8.68;;
67602;SDS011;54417;47.454;18.918;2023-11-22T07:44:06;18.33;;;8.15;;
67602;SDS011;54417;47.454;18.918;2023-11-22T07:49:21;12.35;;;8.40;;
67602;SDS011;54417;47.454;18.918;2023-11-22T07:54:30;15.50;;;9.25;;
67602;SDS011;54417;47.454;18.918;2023-11-22T07:59:38;12.82;;;8.15;;
67602;SDS011;54417;47.454;18.918;2023-11-22T08:04:49;10.27;;;7.63;;
67602;SDS011;54417;47.454;18.918;2023-11-22T08:09:58;10.90;;;7.10;;
67602;SDS011;54417;47.454;18.918;2023-11-22T08:15:16;9.70;;;6.65;;
67602;SDS011;54417;47.454;18.918;2023-11-22T08:20:28;9.40;;;6.23;;
67602;SDS011;54417;47.454;18.918;2023-11-22T08:25:38;13.20;;;7.03;;
67602;SDS011;54417;47.454;18.918;2023-11-22T08:30:45;11.70;;;7.60;;
67602;SDS011;54417;47.454;18.918;2023-11-22T08:35:56;10.55;;;6.47;;
67602;SDS011;54417;47.454;18.918;2023-11-22T09:43:28;9.27;;;7.45;;
67602;SDS011;54417;47.454;18.918;2023-11-22T09:48:36;9.93;;;7.22;;
67602;SDS011;54417;47.454;18.918;2023-11-22T09:53:50;12.45;;;8.05;;
67602;SDS011;54417;47.454;18.918;2023-11-22T09:59:03;11.80;;;7.63;;
67602;SDS011;54417;47.454;18.918;2023-11-22T10:04:08;11.65;;;7.45;;
67602;SDS011;54417;47.454;18.918;2023-11-22T10:09:16;10.32;;;7.28;;
67602;SDS011;54417;47.454;18.918;2023-11-22T10:14:27;11.13;;;7.65;;
67602;SDS011;54417;47.454;18.918;2023-11-22T10:19:38;12.95;;;9.20;;
67602;SDS011;54417;47.454;18.918;2023-11-22T10:24:47;15.00;;;8.52;;
67602;SDS011;54417;47.454;18.918;2023-11-22T10:29:57;16.75;;;11.23;;
67602;SDS011;54417;47.454;18.918;2023-11-22T10:35:01;14.57;;;9.07;;
67602;SDS011;54417;47.454;18.918;2023-11-22T10:40:12;19.23;;;11.43;;
67602;SDS011;54417;47.454;18.918;2023-11-22T10:45:23;16.35;;;10.88;;
67602;SDS011;54417;47.454;18.918;2023-11-22T10:50:35;16.80;;;9.48;;
67602;SDS011;54417;47.454;18.918;2023-11-22T10:55:45;21.38;;;11.75;;
67602;SDS011;54417;47.454;18.918;2023-11-22T11:00:57;24.23;;;13.50;;
67602;SDS011;54417;47.454;18.918;2023-11-22T11:06:08;23.73;;;14.95;;
67602;SDS011;54417;47.454;18.918;2023-11-22T11:11:20;27.35;;;15.60;;
67602;SDS011;54417;47.454;18.918;2023-11-22T11:16:33;24.97;;;16.17;;
67602;SDS011;54417;47.454;18.918;2023-11-22T11:21:45;17.77;;;13.30;;
67602;SDS011;54417;47.454;18.918;2023-11-22T11:26:51;18.75;;;12.75;;
67602;SDS011;54417;47.454;18.918;2023-11-22T11:31:58;25.80;;;13.60;;
67602;SDS011;54417;47.454;18.918;2023-11-22T11:42:20;20.23;;;10.88;;
67602;SDS011;54417;47.454;18.918;2023-11-22T11:47:34;19.88;;;12.65;;
67602;SDS011;54417;47.454;18.918;2023-11-22T11:52:38;12.80;;;7.97;;
67602;SDS011;54417;47.454;18.918;2023-11-22T11:57:47;20.38;;;12.75;;
67602;SDS011;54417;47.454;18.918;2023-11-22T12:02:57;20.35;;;12.88;;
67602;SDS011;54417;47.454;18.918;2023-11-22T12:08:06;19.05;;;13.23;;
67602;SDS011;54417;47.454;18.918;2023-11-22T12:13:16;20.65;;;13.68;;
67602;SDS011;54417;47.454;18.918;2023-11-22T12:18:27;9.48;;;7.60;;
67602;SDS011;54417;47.454;18.918;2023-11-22T12:23:34;15.48;;;10.57;;
67602;SDS011;54417;47.454;18.918;2023-11-22T12:28:45;13.07;;;9.10;;
67602;SDS011;54417;47.454;18.918;2023-11-22T12:34:06;16.15;;;9.27;;
67602;SDS011;54417;47.454;18.918;2023-11-22T12:39:16;13.18;;;7.82;;
67602;SDS011;54417;47.454;18.918;2023-11-22T12:44:23;11.32;;;6.68;;
67602;SDS011;54417;47.454;18.918;2023-11-22T12:49:33;15.20;;;7.65;;
67602;SDS011;54417;47.454;18.918;2023-11-22T12:54:47;10.05;;;7.57;;
67602;SDS011;54417;47.454;18.918;2023-11-22T12:59:56;16.30;;;9.77;;
67602;SDS011;54417;47.454;18.918;2023-11-22T13:05:02;14.02;;;9.05;;
67602;SDS011;54417;47.454;18.918;2023-11-22T13:10:07;10.40;;;7.65;;
67602;SDS011;54417;47.454;18.918;2023-11-22T13:15:16;11.10;;;7.75;;
67602;SDS011;54417;47.454;18.918;2023-11-22T13:20:27;16.40;;;10.85;;
67602;SDS011;54417;47.454;18.918;2023-11-22T13:25:36;8.17;;;5.80;;
67602;SDS011;54417;47.454;18.918;2023-11-22T13:30:44;12.23;;;9.13;;
67602;SDS011;54417;47.454;18.918;2023-11-22T13:35:52;16.63;;;11.10;;
67602;SDS011;54417;47.454;18.918;2023-11-22T13:41:01;17.75;;;12.23;;
67602;SDS011;54417;47.454;18.918;2023-11-22T13:46:10;12.73;;;9.88;;
67602;SDS011;54417;47.454;18.918;2023-11-22T13:51:15;12.80;;;8.73;;
67602;SDS011;54417;47.454;18.918;2023-11-22T13:56:24;14.38;;;8.95;;
67602;SDS011;54417;47.454;18.918;2023-11-22T14:01:33;11.73;;;8.57;;
67602;SDS011;54417;47.454;18.918;2023-11-22T14:06:45;10.63;;;8.20;;
67602;SDS011;54417;47.454;18.918;2023-11-22T14:11:51;17.70;;;10.57;;
67602;SDS011;54417;47.454;18.918;2023-11-22T14:16:55;9.10;;;7.13;;
67602;SDS011;54417;47.454;18.918;2023-11-22T14:22:01;13.48;;;9.65;;
67602;SDS011;54417;47.454;18.918;2023-11-22T14:27:10;13.02;;;9.88;;
67602;SDS011;54417;47.454;18.918;2023-11-22T14:32:19;16.23;;;6.80;;
67602;SDS011;54417;47.454;18.918;2023-11-22T14:37:30;9.25;;;6.35;;
67602;SDS011;54417;47.454;18.918;2023-11-22T14:42:41;6.18;;;4.75;;
67602;SDS011;54417;47.454;18.918;2023-11-22T14:47:50;6.65;;;4.65;;
67602;SDS011;54417;47.454;18.918;2023-11-22T14:52:56;5.22;;;4.60;;
67602;SDS011;54417;47.454;18.918;2023-11-22T14:58:05;6.10;;;4.70;;
67602;SDS011;54417;47.454;18.918;2023-11-22T15:03:08;8.25;;;5.22;;
67602;SDS011;54417;47.454;18.918;2023-11-22T15:08:19;8.30;;;5.45;;
67602;SDS011;54417;47.454;18.918;2023-11-22T15:13:28;3.88;;;3.47;;
67602;SDS011;54417;47.454;18.918;2023-11-22T15:18:38;4.57;;;3.55;;
67602;SDS011;54417;47.454;18.918;2023-11-22T15:23:48;12.60;;;7.28;;
67602;SDS011;54417;47.454;18.918;2023-11-22T15:28:57;7.78;;;5.55;;
67602;SDS011;54417;47.454;18.918;2023-11-22T15:34:01;9.20;;;6.00;;
67602;SDS011;54417;47.454;18.918;2023-11-22T15:39:11;6.60;;;5.18;;
67602;SDS011;54417;47.454;18.918;2023-11-22T15:44:22;14.65;;;7.20;;
67602;SDS011;54417;47.454;18.918;2023-11-22T15:49:26;3.72;;;3.38;;
67602;SDS011;54417;47.454;18.918;2023-11-22T15:54:37;30.70;;;13.75;;
67602;SDS011;54417;47.454;18.918;2023-11-22T15:59:41;6.28;;;4.95;;
67602;SDS011;54417;47.454;18.918;2023-11-22T16:04:49;8.52;;;4.85;;
67602;SDS011;54417;47.454;18.918;2023-11-22T16:10:00;7.72;;;5.10;;
67602;SDS011;54417;47.454;18.918;2023-11-22T16:15:09;11.55;;;5.43;;
67602;SDS011;54417;47.454;18.918;2023-11-22T16:20:19;14.33;;;7.67;;
67602;SDS011;54417;47.454;18.918;2023-11-22T16:25:30;17.33;;;9.50;;
67602;SDS011;54417;47.454;18.918;2023-11-22T16:30:40;15.00;;;8.85;;
67602;SDS011;54417;47.454;18.918;2023-11-22T16:35:49;17.15;;;9.50;;
67602;SDS011;54417;47.454;18.918;2023-11-22T16:40:59;17.52;;;9.77;;
67602;SDS011;54417;47.454;18.918;2023-11-22T16:46:03;13.60;;;7.32;;
67602;SDS011;54417;47.454;18.918;2023-11-22T16:51:08;14.35;;;9.40;;
67602;SDS011;54417;47.454;18.918;2023-11-22T16:56:18;14.30;;;8.40;;
67602;SDS011;54417;47.454;18.918;2023-11-22T17:01:27;17.33;;;10.55;;
67602;SDS011;54417;47.454;18.918;2023-11-22T17:06:36;16.55;;;9.48;;
67602;SDS011;54417;47.454;18.918;2023-11-22T17:11:46;15.75;;;10.20;;
67602;SDS011;54417;47.454;18.918;2023-11-22T17:16:50;17.70;;;9.52;;
67602;SDS011;54417;47.454;18.918;2023-11-22T17:21:54;23.15;;;12.25;;
67602;SDS011;54417;47.454;18.918;2023-11-22T17:27:00;17.98;;;10.15;;
67602;SDS011;54417;47.454;18.918;2023-11-22T17:32:09;23.70;;;10.90;;
67602;SDS011;54417;47.454;18.918;2023-11-22T17:37:18;15.82;;;9.48;;
67602;SDS011;54417;47.454;18.918;2023-11-22T17:42:28;18.75;;;10.68;;
67602;SDS011;54417;47.454;18.918;2023-11-22T17:47:37;16.48;;;9.02;;
67602;SDS011;54417;47.454;18.918;2023-11-22T17:52:46;14.05;;;9.40;;
67602;SDS011;54417;47.454;18.918;2023-11-22T17:57:56;20.42;;;10.50;;
67602;SDS011;54417;47.454;18.918;2023-11-22T18:03:05;22.02;;;10.63;;
67602;SDS011;54417;47.454;18.918;2023-11-22T18:08:14;12.00;;;8.15;;
67602;SDS011;54417;47.454;18.918;2023-11-22T18:13:23;22.83;;;11.35;;
67602;SDS011;54417;47.454;18.918;2023-11-22T18:18:33;21.75;;;11.70;;
67602;SDS011;54417;47.454;18.918;2023-11-22T18:23:42;18.85;;;11.07;;
67602;SDS011;54417;47.454;18.918;2023-11-22T18:28:52;11.98;;;8.18;;
67602;SDS011;54417;47.454;18.918;2023-11-22T18:34:01;18.95;;;11.80;;
67602;SDS011;54417;47.454;18.918;2023-11-22T18:39:11;15.52;;;9.10;;
67602;SDS011;54417;47.454;18.918;2023-11-22T18:44:22;16.23;;;8.85;;
67602;SDS011;54417;47.454;18.918;2023-11-22T18:49:26;18.73;;;10.40;;
67602;SDS011;54417;47.454;18.918;2023-11-22T18:54:35;15.70;;;9.68;;
67602;SDS011;54417;47.454;18.918;2023-11-22T18:59:45;18.27;;;10.32;;
67602;SDS011;54417;47.454;18.918;2023-11-22T19:10:05;20.88;;;11.93;;
67602;SDS011;54417;47.454;18.918;2023-11-22T19:15:11;19.88;;;12.07;;
67602;SDS011;54417;47.454;18.918;2023-11-22T19:20:15;18.92;;;11.15;;
67602;SDS011;54417;47.454;18.918;2023-11-22T19:25:19;19.05;;;10.40;;
67602;SDS011;54417;47.454;18.918;2023-11-22T19:30:32;15.20;;;8.73;;
67602;SDS011;54417;47.454;18.918;2023-11-22T19:35:36;12.75;;;8.05;;
67602;SDS011;54417;47.454;18.918;2023-11-22T19:40:44;25.25;;;11.68;;
67602;SDS011;54417;47.454;18.918;2023-11-22T19:45:55;17.10;;;8.02;;
67602;SDS011;54417;47.454;18.918;2023-11-22T19:50:59;22.15;;;11.98;;
67602;SDS011;54417;47.454;18.918;2023-11-22T19:56:08;17.63;;;9.30;;
67602;SDS011;54417;47.454;18.918;2023-11-22T20:01:18;18.33;;;9.48;;
67602;SDS011;54417;47.454;18.918;2023-11-22T20:06:27;21.17;;;11.35;;
67602;SDS011;54417;47.454;18.918;2023-11-22T20:11:36;17.95;;;10.60;;
67602;SDS011;54417;47.454;18.918;2023-11-22T20:16:46;11.93;;;7.45;;
67602;SDS011;54417;47.454;18.918;2023-11-22T20:21:50;11.98;;;7.50;;
67602;SDS011;54417;47.454;18.918;2023-11-22T20:26:59;24.27;;;12.57;;
67602;SDS011;54417;47.454;18.918;2023-11-22T20:32:09;20.73;;;11.98;;
67602;SDS011;54417;47.454;18.918;2023-11-22T20:37:14;19.95;;;10.00;;
67602;SDS011;54417;47.454;18.918;2023-11-22T20:42:23;18.20;;;9.82;;
67602;SDS011;54417;47.454;18.918;2023-11-22T20:47:33;18.85;;;10.60;;
67602;SDS011;54417;47.454;18.918;2023-11-22T20:52:42;21.83;;;9.38;;
67602;SDS011;54417;47.454;18.918;2023-11-22T20:57:46;20.13;;;10.85;;
67602;SDS011;54417;47.454;18.918;2023-11-22T21:02:56;17.23;;;10.05;;
67602;SDS011;54417;47.454;18.918;2023-11-22T21:08:05;20.92;;;11.68;;
67602;SDS011;54417;47.454;18.918;2023-11-22T21:13:20;26.60;;;15.65;;
67602;SDS011;54417;47.454;18.918;2023-11-22T21:18:33;16.52;;;11.23;;
67602;SDS011;54417;47.454;18.918;2023-11-22T21:23:44;21.60;;;11.98;;
67602;SDS011;54417;47.454;18.918;2023-11-22T21:28:52;17.27;;;10.75;;
67602;SDS011;54417;47.454;18.918;2023-11-22T21:34:03;24.80;;;12.73;;
67602;SDS011;54417;47.454;18.918;2023-11-22T21:39:12;21.08;;;12.30;;
67602;SDS011;54417;47.454;18.918;2023-11-22T21:44:20;28.02;;;13.10;;
67602;SDS011;54417;47.454;18.918;2023-11-22T21:49:31;26.13;;;14.23;;
67602;SDS011;54417;47.454;18.918;2023-11-22T21:54:39;21.10;;;11.25;;
67602;SDS011;54417;47.454;18.918;2023-11-22T21:59:48;20.73;;;12.90;;
67602;SDS011;54417;47.454;18.918;2023-11-22T22:04:58;25.30;;;14.32;;
67602;SDS011;54417;47.454;18.918;2023-11-22T22:10:07;27.77;;;12.98;;
67602;SDS011;54417;47.454;18.918;2023-11-22T22:15:18;31.15;;;15.52;;
67602;SDS011;54417;47.454;18.918;2023-11-22T22:20:29;20.88;;;12.90;;
67602;SDS011;54417;47.454;18.918;2023-11-22T22:25:48;16.83;;;10.15;;
67602;SDS011;54417;47.454;18.918;2023-11-22T22:30:56;16.95;;;9.18;;
67602;SDS011;54417;47.454;18.918;2023-11-22T22:36:07;24.48;;;11.25;;
67602;SDS011;54417;47.454;18.918;2023-11-22T22:41:17;26.90;;;12.90;;
67602;SDS011;54417;47.454;18.918;2023-11-22T22:46:21;19.23;;;11.35;;
67602;SDS011;54417;47.454;18.918;2023-11-22T22:51:32;22.73;;;12.27;;
67602;SDS011;54417;47.454;18.918;2023-11-22T22:56:41;13.43;;;8.85;;
67602;SDS011;54417;47.454;18.918;2023-11-22T23:01:50;27.23;;;12.45;;
67602;SDS011;54417;47.454;18.918;2023-11-22T23:06:55;19.92;;;11.00;;
67602;SDS011;54417;47.454;18.918;2023-11-22T23:11:58;26.95;;;14.27;;
67602;SDS011;54417;47.454;18.918;2023-11-22T23:17:08;29.55;;;14.77;;
67602;SDS011;54417;47.454;18.918;2023-11-22T23:22:13;25.35;;;14.25;;
67602;SDS011;54417;47.454;18.918;2023-11-22T23:27:22;26.77;;;13.65;;
67602;SDS011;54417;47.454;18.918;2023-11-22T23:32:31;19.80;;;11.45;;
67602;SDS011;54417;47.454;18.918;2023-11-22T23:37:41;19.48;;;10.30;;
67602;SDS011;54417;47.454;18.918;2023-11-22T23:42:53;27.88;;;14.05;;
67602;SDS011;54417;47.454;18.918;2023-11-22T23:47:58;22.45;;;13.15;;
67602;SDS011;54417;47.454;18.918;2023-11-22T23:53:09;28.27;;;15.02;;
67602;SDS011;54417;47.454;18.918;2023-11-22T23:58:18;20.05;;;11.13;;
